sensor_id;sensor_type;location;lat;lon;timestamp;P1;durP1;ratioP1;P2;durP2;ratioP2
69256;SDS011;56376;53.356;-1.748;2022-12-18T00:01:03;8.13;;;6.23;;
69256;SDS011;56376;53.356;-1.748;2022-12-18T00:03:34;10.57;;;7.67;;
69256;SDS011;56376;53.356;-1.748;2022-12-18T00:06:00;7.73;;;5.93;;
69256;SDS011;56376;53.356;-1.748;2022-12-18T00:08:26;8.50;;;6.23;;
69256;SDS011;56376;53.356;-1.748;2022-12-18T00:10:51;7.83;;;5.90;;
69256;SDS011;56376;53.356;-1.748;2022-12-18T00:13:16;7.07;;;6.20;;
69256;SDS011;56376;53.356;-1.748;2022-12-18T00:15:42;7.43;;;6.57;;
69256;SDS011;56376;53.356;-1.748;2022-12-18T00:18:07;8.07;;;6.07;;
69256;SDS011;56376;53.356;-1.748;2022-12-18T00:20:36;7.17;;;6.30;;
69256;SDS011;56376;53.356;-1.748;2022-12-18T00:23:03;6.07;;;5.47;;
69256;SDS011;56376;53.356;-1.748;2022-12-18T00:25:29;7.10;;;5.93;;
69256;SDS011;56376;53.356;-1.748;2022-12-18T00:27:54;6.37;;;5.30;;
69256;SDS011;56376;53.356;-1.748;2022-12-18T00:30:19;7.97;;;6.03;;
69256;SDS011;56376;53.356;-1.748;2022-12-18T00:32:45;6.80;;;6.10;;
69256;SDS011;56376;53.356;-1.748;2022-12-18T00:35:10;6.77;;;5.27;;
69256;SDS011;56376;53.356;-1.748;2022-12-18T00:37:36;6.60;;;5.17;;
69256;SDS011;56376;53.356;-1.748;2022-12-18T00:40:01;7.13;;;6.00;;
69256;SDS011;56376;53.356;-1.748;2022-12-18T00:42:27;5.77;;;5.13;;
69256;SDS011;56376;53.356;-1.748;2022-12-18T00:45:11;8.63;;;5.35;;
69256;SDS011;56376;53.356;-1.748;2022-12-18T00:47:37;6.77;;;5.87;;
69256;SDS011;56376;53.356;-1.748;2022-12-18T00:50:02;7.03;;;5.93;;
69256;SDS011;56376;53.356;-1.748;2022-12-18T00:52:28;7.77;;;5.57;;
69256;SDS011;56376;53.356;-1.748;2022-12-18T00:54:53;6.13;;;5.17;;
69256;SDS011;56376;53.356;-1.748;2022-12-18T00:57:19;6.30;;;5.57;;
69256;SDS011;56376;53.356;-1.748;2022-12-18T00:59:44;6.80;;;5.30;;
69256;SDS011;56376;53.356;-1.748;2022-12-18T01:02:09;8.33;;;5.27;;
69256;SDS011;56376;53.356;-1.748;2022-12-18T01:04:35;5.97;;;5.03;;
69256;SDS011;56376;53.356;-1.748;2022-12-18T01:07:00;7.10;;;5.07;;
69256;SDS011;56376;53.356;-1.748;2022-12-18T01:09:26;7.13;;;5.87;;
69256;SDS011;56376;53.356;-1.748;2022-12-18T01:11:51;6.17;;;5.23;;
69256;SDS011;56376;53.356;-1.748;2022-12-18T01:14:17;6.53;;;5.00;;
69256;SDS011;56376;53.356;-1.748;2022-12-18T01:16:42;5.90;;;5.17;;
69256;SDS011;56376;53.356;-1.748;2022-12-18T01:19:07;6.93;;;5.40;;
69256;SDS011;56376;53.356;-1.748;2022-12-18T01:21:33;7.27;;;5.77;;
69256;SDS011;56376;53.356;-1.748;2022-12-18T01:23:59;6.30;;;5.20;;
69256;SDS011;56376;53.356;-1.748;2022-12-18T01:26:24;7.87;;;5.07;;
69256;SDS011;56376;53.356;-1.748;2022-12-18T01:28:50;6.73;;;5.00;;
69256;SDS011;56376;53.356;-1.748;2022-12-18T01:31:20;6.13;;;5.20;;
69256;SDS011;56376;53.356;-1.748;2022-12-18T01:33:47;10.50;;;7.67;;
69256;SDS011;56376;53.356;-1.748;2022-12-18T01:36:14;6.07;;;4.93;;
69256;SDS011;56376;53.356;-1.748;2022-12-18T01:38:41;8.53;;;6.03;;
69256;SDS011;56376;53.356;-1.748;2022-12-18T01:41:06;6.40;;;5.07;;
69256;SDS011;56376;53.356;-1.748;2022-12-18T01:46:11;7.70;;;5.20;;
69256;SDS011;56376;53.356;-1.748;2022-12-18T01:48:37;6.70;;;4.70;;
69256;SDS011;56376;53.356;-1.748;2022-12-18T01:51:04;7.07;;;4.90;;
69256;SDS011;56376;53.356;-1.748;2022-12-18T01:53:32;6.27;;;5.53;;
69256;SDS011;56376;53.356;-1.748;2022-12-18T01:55:57;6.10;;;5.10;;
69256;SDS011;56376;53.356;-1.748;2022-12-18T01:58:27;5.93;;;5.10;;
69256;SDS011;56376;53.356;-1.748;2022-12-18T02:01:00;5.40;;;4.67;;
69256;SDS011;56376;53.356;-1.748;2022-12-18T02:03:26;8.40;;;5.53;;
69256;SDS011;56376;53.356;-1.748;2022-12-18T02:05:58;5.93;;;4.63;;
69256;SDS011;56376;53.356;-1.748;2022-12-18T02:08:45;6.33;;;5.20;;
69256;SDS011;56376;53.356;-1.748;2022-12-18T02:11:24;7.87;;;5.57;;
69256;SDS011;56376;53.356;-1.748;2022-12-18T02:25:16;6.63;;;5.17;;
69256;SDS011;56376;53.356;-1.748;2022-12-18T02:27:46;7.07;;;5.33;;
69256;SDS011;56376;53.356;-1.748;2022-12-18T02:30:14;6.57;;;5.07;;
69256;SDS011;56376;53.356;-1.748;2022-12-18T02:32:41;7.03;;;5.37;;
69256;SDS011;56376;53.356;-1.748;2022-12-18T02:35:12;7.33;;;4.97;;
69256;SDS011;56376;53.356;-1.748;2022-12-18T02:37:40;7.47;;;5.03;;
69256;SDS011;56376;53.356;-1.748;2022-12-18T02:40:08;8.67;;;5.83;;
69256;SDS011;56376;53.356;-1.748;2022-12-18T02:42:35;8.33;;;6.10;;
69256;SDS011;56376;53.356;-1.748;2022-12-18T02:45:01;7.70;;;5.80;;
69256;SDS011;56376;53.356;-1.748;2022-12-18T02:47:30;7.70;;;6.37;;
69256;SDS011;56376;53.356;-1.748;2022-12-18T02:58:14;7.57;;;5.33;;
69256;SDS011;56376;53.356;-1.748;2022-12-18T03:04:25;8.00;;;5.53;;
69256;SDS011;56376;53.356;-1.748;2022-12-18T03:06:53;8.20;;;5.40;;
69256;SDS011;56376;53.356;-1.748;2022-12-18T03:09:29;8.20;;;6.73;;
69256;SDS011;56376;53.356;-1.748;2022-12-18T03:12:00;6.53;;;5.57;;
69256;SDS011;56376;53.356;-1.748;2022-12-18T03:14:50;8.50;;;5.87;;
69256;SDS011;56376;53.356;-1.748;2022-12-18T03:17:22;8.30;;;6.03;;
69256;SDS011;56376;53.356;-1.748;2022-12-18T03:19:50;8.23;;;5.70;;
69256;SDS011;56376;53.356;-1.748;2022-12-18T03:22:17;6.77;;;5.70;;
69256;SDS011;56376;53.356;-1.748;2022-12-18T03:24:44;6.70;;;5.23;;
69256;SDS011;56376;53.356;-1.748;2022-12-18T03:27:13;6.43;;;5.70;;
69256;SDS011;56376;53.356;-1.748;2022-12-18T03:29:44;9.00;;;6.90;;
69256;SDS011;56376;53.356;-1.748;2022-12-18T03:32:29;7.97;;;6.20;;
69256;SDS011;56376;53.356;-1.748;2022-12-18T03:34:59;8.77;;;5.70;;
69256;SDS011;56376;53.356;-1.748;2022-12-18T03:37:31;6.43;;;5.23;;
69256;SDS011;56376;53.356;-1.748;2022-12-18T03:39:57;7.07;;;5.70;;
69256;SDS011;56376;53.356;-1.748;2022-12-18T03:42:25;7.67;;;5.87;;
69256;SDS011;56376;53.356;-1.748;2022-12-18T03:45:32;7.90;;;6.20;;
69256;SDS011;56376;53.356;-1.748;2022-12-18T03:48:14;7.40;;;6.17;;
69256;SDS011;56376;53.356;-1.748;2022-12-18T03:50:49;6.30;;;5.18;;
69256;SDS011;56376;53.356;-1.748;2022-12-18T03:55:50;8.67;;;6.13;;
69256;SDS011;56376;53.356;-1.748;2022-12-18T03:58:17;8.13;;;6.03;;
69256;SDS011;56376;53.356;-1.748;2022-12-18T04:00:45;6.83;;;5.53;;
69256;SDS011;56376;53.356;-1.748;2022-12-18T04:03:15;7.87;;;5.97;;
69256;SDS011;56376;53.356;-1.748;2022-12-18T04:05:43;8.07;;;6.60;;
69256;SDS011;56376;53.356;-1.748;2022-12-18T04:08:13;7.00;;;5.73;;
69256;SDS011;56376;53.356;-1.748;2022-12-18T04:10:39;8.20;;;6.70;;
69256;SDS011;56376;53.356;-1.748;2022-12-18T04:13:04;10.70;;;8.37;;
69256;SDS011;56376;53.356;-1.748;2022-12-18T04:15:31;9.27;;;7.50;;
69256;SDS011;56376;53.356;-1.748;2022-12-18T04:18:01;9.63;;;7.07;;
69256;SDS011;56376;53.356;-1.748;2022-12-18T04:20:27;9.23;;;7.00;;
69256;SDS011;56376;53.356;-1.748;2022-12-18T04:22:52;9.97;;;7.60;;
69256;SDS011;56376;53.356;-1.748;2022-12-18T04:25:18;10.50;;;7.53;;
69256;SDS011;56376;53.356;-1.748;2022-12-18T04:27:43;8.27;;;6.53;;
69256;SDS011;56376;53.356;-1.748;2022-12-18T04:30:09;9.40;;;7.00;;
69256;SDS011;56376;53.356;-1.748;2022-12-18T04:32:35;8.93;;;6.77;;
69256;SDS011;56376;53.356;-1.748;2022-12-18T04:35:00;8.90;;;6.83;;
69256;SDS011;56376;53.356;-1.748;2022-12-18T04:37:26;11.53;;;8.30;;
69256;SDS011;56376;53.356;-1.748;2022-12-18T04:39:52;10.60;;;7.47;;
69256;SDS011;56376;53.356;-1.748;2022-12-18T04:42:17;12.00;;;8.63;;
69256;SDS011;56376;53.356;-1.748;2022-12-18T04:44:42;17.93;;;12.10;;
69256;SDS011;56376;53.356;-1.748;2022-12-18T04:47:08;15.90;;;10.83;;
69256;SDS011;56376;53.356;-1.748;2022-12-18T04:49:33;15.07;;;10.50;;
69256;SDS011;56376;53.356;-1.748;2022-12-18T04:51:58;17.70;;;11.03;;
69256;SDS011;56376;53.356;-1.748;2022-12-18T04:54:24;15.20;;;11.17;;
69256;SDS011;56376;53.356;-1.748;2022-12-18T04:56:50;17.23;;;11.47;;
69256;SDS011;56376;53.356;-1.748;2022-12-18T04:59:15;16.90;;;11.67;;
69256;SDS011;56376;53.356;-1.748;2022-12-18T05:01:41;15.40;;;11.23;;
69256;SDS011;56376;53.356;-1.748;2022-12-18T05:04:06;21.90;;;14.17;;
69256;SDS011;56376;53.356;-1.748;2022-12-18T05:06:32;17.77;;;11.73;;
69256;SDS011;56376;53.356;-1.748;2022-12-18T05:08:57;19.97;;;13.77;;
69256;SDS011;56376;53.356;-1.748;2022-12-18T05:11:23;20.67;;;12.70;;
69256;SDS011;56376;53.356;-1.748;2022-12-18T05:13:48;18.23;;;12.00;;
69256;SDS011;56376;53.356;-1.748;2022-12-18T05:16:14;16.93;;;11.77;;
69256;SDS011;56376;53.356;-1.748;2022-12-18T05:18:40;17.33;;;11.00;;
69256;SDS011;56376;53.356;-1.748;2022-12-18T05:21:05;16.03;;;11.17;;
69256;SDS011;56376;53.356;-1.748;2022-12-18T05:23:31;17.93;;;11.63;;
69256;SDS011;56376;53.356;-1.748;2022-12-18T05:26:01;16.37;;;11.67;;
69256;SDS011;56376;53.356;-1.748;2022-12-18T05:28:29;15.33;;;11.60;;
69256;SDS011;56376;53.356;-1.748;2022-12-18T05:30:56;14.93;;;11.13;;
69256;SDS011;56376;53.356;-1.748;2022-12-18T05:33:24;17.93;;;11.70;;
69256;SDS011;56376;53.356;-1.748;2022-12-18T05:35:51;18.57;;;11.53;;
69256;SDS011;56376;53.356;-1.748;2022-12-18T05:38:18;18.47;;;12.27;;
69256;SDS011;56376;53.356;-1.748;2022-12-18T05:40:45;17.70;;;12.43;;
69256;SDS011;56376;53.356;-1.748;2022-12-18T05:43:10;19.63;;;11.13;;
69256;SDS011;56376;53.356;-1.748;2022-12-18T05:45:37;17.07;;;12.73;;
69256;SDS011;56376;53.356;-1.748;2022-12-18T05:48:03;16.87;;;11.10;;
69256;SDS011;56376;53.356;-1.748;2022-12-18T05:50:29;18.30;;;12.27;;
69256;SDS011;56376;53.356;-1.748;2022-12-18T05:52:54;20.77;;;12.57;;
69256;SDS011;56376;53.356;-1.748;2022-12-18T05:55:19;16.73;;;11.53;;
69256;SDS011;56376;53.356;-1.748;2022-12-18T05:57:45;21.33;;;13.37;;
69256;SDS011;56376;53.356;-1.748;2022-12-18T06:00:10;20.60;;;13.30;;
69256;SDS011;56376;53.356;-1.748;2022-12-18T06:02:36;18.13;;;12.57;;
69256;SDS011;56376;53.356;-1.748;2022-12-18T06:05:02;20.50;;;13.63;;
69256;SDS011;56376;53.356;-1.748;2022-12-18T06:07:27;20.77;;;12.70;;
69256;SDS011;56376;53.356;-1.748;2022-12-18T06:09:52;20.80;;;13.93;;
69256;SDS011;56376;53.356;-1.748;2022-12-18T06:12:18;21.53;;;14.20;;
69256;SDS011;56376;53.356;-1.748;2022-12-18T06:14:43;22.37;;;15.33;;
69256;SDS011;56376;53.356;-1.748;2022-12-18T06:17:09;21.40;;;14.23;;
69256;SDS011;56376;53.356;-1.748;2022-12-18T06:19:34;26.93;;;16.90;;
69256;SDS011;56376;53.356;-1.748;2022-12-18T06:22:00;28.10;;;17.20;;
69256;SDS011;56376;53.356;-1.748;2022-12-18T06:24:25;26.27;;;17.87;;
69256;SDS011;56376;53.356;-1.748;2022-12-18T06:26:50;25.80;;;16.50;;
69256;SDS011;56376;53.356;-1.748;2022-12-18T06:29:16;25.67;;;15.57;;
69256;SDS011;56376;53.356;-1.748;2022-12-18T06:31:41;24.77;;;15.70;;
69256;SDS011;56376;53.356;-1.748;2022-12-18T06:34:06;27.47;;;17.10;;
69256;SDS011;56376;53.356;-1.748;2022-12-18T06:36:32;27.37;;;17.80;;
69256;SDS011;56376;53.356;-1.748;2022-12-18T06:38:57;28.37;;;17.37;;
69256;SDS011;56376;53.356;-1.748;2022-12-18T06:41:23;27.23;;;18.03;;
69256;SDS011;56376;53.356;-1.748;2022-12-18T06:43:49;29.97;;;19.23;;
69256;SDS011;56376;53.356;-1.748;2022-12-18T06:46:14;31.33;;;18.50;;
69256;SDS011;56376;53.356;-1.748;2022-12-18T06:48:40;28.73;;;19.23;;
69256;SDS011;56376;53.356;-1.748;2022-12-18T06:51:06;31.63;;;19.73;;
69256;SDS011;56376;53.356;-1.748;2022-12-18T06:53:31;28.93;;;17.90;;
69256;SDS011;56376;53.356;-1.748;2022-12-18T06:56:04;29.97;;;18.67;;
69256;SDS011;56376;53.356;-1.748;2022-12-18T06:58:31;26.48;;;17.73;;
69256;SDS011;56376;53.356;-1.748;2022-12-18T07:01:00;28.53;;;18.80;;
69256;SDS011;56376;53.356;-1.748;2022-12-18T07:03:27;27.97;;;17.00;;
69256;SDS011;56376;53.356;-1.748;2022-12-18T07:05:53;32.10;;;20.07;;
69256;SDS011;56376;53.356;-1.748;2022-12-18T07:08:18;32.33;;;20.43;;
69256;SDS011;56376;53.356;-1.748;2022-12-18T07:10:44;35.17;;;20.63;;
69256;SDS011;56376;53.356;-1.748;2022-12-18T07:13:09;32.90;;;20.73;;
69256;SDS011;56376;53.356;-1.748;2022-12-18T07:15:35;31.30;;;18.40;;
69256;SDS011;56376;53.356;-1.748;2022-12-18T07:18:00;28.37;;;17.70;;
69256;SDS011;56376;53.356;-1.748;2022-12-18T07:20:26;28.30;;;17.97;;
69256;SDS011;56376;53.356;-1.748;2022-12-18T07:22:51;30.37;;;18.30;;
69256;SDS011;56376;53.356;-1.748;2022-12-18T07:25:17;27.27;;;17.23;;
69256;SDS011;56376;53.356;-1.748;2022-12-18T07:27:42;30.47;;;18.33;;
69256;SDS011;56376;53.356;-1.748;2022-12-18T07:30:08;31.43;;;18.37;;
69256;SDS011;56376;53.356;-1.748;2022-12-18T07:32:34;28.20;;;17.53;;
69256;SDS011;56376;53.356;-1.748;2022-12-18T07:34:59;27.57;;;18.47;;
69256;SDS011;56376;53.356;-1.748;2022-12-18T07:37:24;30.93;;;17.67;;
69256;SDS011;56376;53.356;-1.748;2022-12-18T07:39:50;31.50;;;19.80;;
69256;SDS011;56376;53.356;-1.748;2022-12-18T07:42:15;29.50;;;19.47;;
69256;SDS011;56376;53.356;-1.748;2022-12-18T07:44:56;32.60;;;19.87;;
69256;SDS011;56376;53.356;-1.748;2022-12-18T07:47:22;31.07;;;19.00;;
69256;SDS011;56376;53.356;-1.748;2022-12-18T07:49:47;34.10;;;20.47;;
69256;SDS011;56376;53.356;-1.748;2022-12-18T07:52:13;39.23;;;23.67;;
69256;SDS011;56376;53.356;-1.748;2022-12-18T07:54:38;37.57;;;21.23;;
69256;SDS011;56376;53.356;-1.748;2022-12-18T07:57:05;34.27;;;21.00;;
69256;SDS011;56376;53.356;-1.748;2022-12-18T07:59:31;34.83;;;21.37;;
69256;SDS011;56376;53.356;-1.748;2022-12-18T08:01:56;31.33;;;20.40;;
69256;SDS011;56376;53.356;-1.748;2022-12-18T08:04:21;32.03;;;20.60;;
69256;SDS011;56376;53.356;-1.748;2022-12-18T08:06:47;30.77;;;20.10;;
69256;SDS011;56376;53.356;-1.748;2022-12-18T08:09:12;33.57;;;20.00;;
69256;SDS011;56376;53.356;-1.748;2022-12-18T08:11:38;32.60;;;20.03;;
69256;SDS011;56376;53.356;-1.748;2022-12-18T08:14:03;30.57;;;19.00;;
69256;SDS011;56376;53.356;-1.748;2022-12-18T08:16:29;28.53;;;19.10;;
69256;SDS011;56376;53.356;-1.748;2022-12-18T08:18:55;33.90;;;20.90;;
69256;SDS011;56376;53.356;-1.748;2022-12-18T08:21:22;32.43;;;20.80;;
69256;SDS011;56376;53.356;-1.748;2022-12-18T08:23:49;32.10;;;20.33;;
69256;SDS011;56376;53.356;-1.748;2022-12-18T08:26:15;32.40;;;20.90;;
69256;SDS011;56376;53.356;-1.748;2022-12-18T08:28:41;30.55;;;19.83;;
69256;SDS011;56376;53.356;-1.748;2022-12-18T08:31:07;34.93;;;21.07;;
69256;SDS011;56376;53.356;-1.748;2022-12-18T08:33:34;32.47;;;20.17;;
69256;SDS011;56376;53.356;-1.748;2022-12-18T08:36:00;33.97;;;21.20;;
69256;SDS011;56376;53.356;-1.748;2022-12-18T08:38:26;33.63;;;21.60;;
69256;SDS011;56376;53.356;-1.748;2022-12-18T08:41:01;35.87;;;22.00;;
69256;SDS011;56376;53.356;-1.748;2022-12-18T08:43:28;34.60;;;20.93;;
69256;SDS011;56376;53.356;-1.748;2022-12-18T08:46:16;36.38;;;20.45;;
69256;SDS011;56376;53.356;-1.748;2022-12-18T08:48:42;32.20;;;20.17;;
69256;SDS011;56376;53.356;-1.748;2022-12-18T08:51:08;31.67;;;19.53;;
69256;SDS011;56376;53.356;-1.748;2022-12-18T08:53:37;31.97;;;19.23;;
69256;SDS011;56376;53.356;-1.748;2022-12-18T08:56:03;36.47;;;20.97;;
69256;SDS011;56376;53.356;-1.748;2022-12-18T08:58:29;37.53;;;21.63;;
69256;SDS011;56376;53.356;-1.748;2022-12-18T09:00:59;31.00;;;18.83;;
69256;SDS011;56376;53.356;-1.748;2022-12-18T09:03:28;33.53;;;19.58;;
69256;SDS011;56376;53.356;-1.748;2022-12-18T09:05:54;35.80;;;21.00;;
69256;SDS011;56376;53.356;-1.748;2022-12-18T09:08:19;33.13;;;20.73;;
69256;SDS011;56376;53.356;-1.748;2022-12-18T09:10:45;34.03;;;19.67;;
69256;SDS011;56376;53.356;-1.748;2022-12-18T09:13:12;33.70;;;20.60;;
69256;SDS011;56376;53.356;-1.748;2022-12-18T09:15:42;30.63;;;17.67;;
69256;SDS011;56376;53.356;-1.748;2022-12-18T09:18:10;35.57;;;19.93;;
69256;SDS011;56376;53.356;-1.748;2022-12-18T09:20:36;30.57;;;17.57;;
69256;SDS011;56376;53.356;-1.748;2022-12-18T09:23:02;31.40;;;18.53;;
69256;SDS011;56376;53.356;-1.748;2022-12-18T09:25:28;34.13;;;20.20;;
69256;SDS011;56376;53.356;-1.748;2022-12-18T09:28:04;32.77;;;19.97;;
69256;SDS011;56376;53.356;-1.748;2022-12-18T09:30:50;32.63;;;18.97;;
69256;SDS011;56376;53.356;-1.748;2022-12-18T09:33:16;34.27;;;19.60;;
69256;SDS011;56376;53.356;-1.748;2022-12-18T09:35:42;32.40;;;18.83;;
69256;SDS011;56376;53.356;-1.748;2022-12-18T09:38:11;33.83;;;20.33;;
69256;SDS011;56376;53.356;-1.748;2022-12-18T09:40:43;31.13;;;18.97;;
69256;SDS011;56376;53.356;-1.748;2022-12-18T09:45:51;33.90;;;18.93;;
69256;SDS011;56376;53.356;-1.748;2022-12-18T09:48:31;35.40;;;20.00;;
69256;SDS011;56376;53.356;-1.748;2022-12-18T09:51:06;36.30;;;21.73;;
69256;SDS011;56376;53.356;-1.748;2022-12-18T09:53:38;32.87;;;20.10;;
69256;SDS011;56376;53.356;-1.748;2022-12-18T09:56:11;33.50;;;20.03;;
69256;SDS011;56376;53.356;-1.748;2022-12-18T09:58:47;37.10;;;20.60;;
69256;SDS011;56376;53.356;-1.748;2022-12-18T10:01:23;33.57;;;18.60;;
69256;SDS011;56376;53.356;-1.748;2022-12-18T10:03:49;31.20;;;17.90;;
69256;SDS011;56376;53.356;-1.748;2022-12-18T10:12:17;29.03;;;16.87;;
69256;SDS011;56376;53.356;-1.748;2022-12-18T10:20:42;31.07;;;17.60;;
69256;SDS011;56376;53.356;-1.748;2022-12-18T10:23:28;28.60;;;17.80;;
69256;SDS011;56376;53.356;-1.748;2022-12-18T10:26:04;34.30;;;19.23;;
69256;SDS011;56376;53.356;-1.748;2022-12-18T10:28:38;31.27;;;18.37;;
69256;SDS011;56376;53.356;-1.748;2022-12-18T10:31:16;29.63;;;17.10;;
69256;SDS011;56376;53.356;-1.748;2022-12-18T10:33:44;28.17;;;16.40;;
69256;SDS011;56376;53.356;-1.748;2022-12-18T10:36:10;28.87;;;17.43;;
69256;SDS011;56376;53.356;-1.748;2022-12-18T10:38:36;30.77;;;16.90;;
69256;SDS011;56376;53.356;-1.748;2022-12-18T10:41:02;29.17;;;15.93;;
69256;SDS011;56376;53.356;-1.748;2022-12-18T10:43:31;28.63;;;16.77;;
69256;SDS011;56376;53.356;-1.748;2022-12-18T10:48:26;35.00;;;18.90;;
69256;SDS011;56376;53.356;-1.748;2022-12-18T10:50:52;27.43;;;16.03;;
69256;SDS011;56376;53.356;-1.748;2022-12-18T10:53:22;29.87;;;16.43;;
69256;SDS011;56376;53.356;-1.748;2022-12-18T10:55:54;27.37;;;15.87;;
69256;SDS011;56376;53.356;-1.748;2022-12-18T10:58:30;29.50;;;17.00;;
69256;SDS011;56376;53.356;-1.748;2022-12-18T11:01:08;28.03;;;17.43;;
69256;SDS011;56376;53.356;-1.748;2022-12-18T11:03:42;28.13;;;16.17;;
69256;SDS011;56376;53.356;-1.748;2022-12-18T11:06:13;28.07;;;16.83;;
69256;SDS011;56376;53.356;-1.748;2022-12-18T11:08:41;29.90;;;16.50;;
69256;SDS011;56376;53.356;-1.748;2022-12-18T11:11:21;26.17;;;15.40;;
69256;SDS011;56376;53.356;-1.748;2022-12-18T11:16:26;27.40;;;15.27;;
69256;SDS011;56376;53.356;-1.748;2022-12-18T11:18:52;26.17;;;16.37;;
69256;SDS011;56376;53.356;-1.748;2022-12-18T11:21:17;33.60;;;19.83;;
69256;SDS011;56376;53.356;-1.748;2022-12-18T11:23:50;29.03;;;18.13;;
69256;SDS011;56376;53.356;-1.748;2022-12-18T11:26:17;27.30;;;15.45;;
69256;SDS011;56376;53.356;-1.748;2022-12-18T11:28:47;24.83;;;15.27;;
69256;SDS011;56376;53.356;-1.748;2022-12-18T11:31:26;27.77;;;16.80;;
69256;SDS011;56376;53.356;-1.748;2022-12-18T11:36:39;33.80;;;18.30;;
69256;SDS011;56376;53.356;-1.748;2022-12-18T11:44:35;28.47;;;14.93;;
69256;SDS011;56376;53.356;-1.748;2022-12-18T11:47:19;30.23;;;17.93;;
69256;SDS011;56376;53.356;-1.748;2022-12-18T11:49:54;28.83;;;17.67;;
69256;SDS011;56376;53.356;-1.748;2022-12-18T11:52:25;33.10;;;18.30;;
69256;SDS011;56376;53.356;-1.748;2022-12-18T11:54:58;33.17;;;18.53;;
69256;SDS011;56376;53.356;-1.748;2022-12-18T11:57:29;30.17;;;17.77;;
69256;SDS011;56376;53.356;-1.748;2022-12-18T12:00:12;32.90;;;18.40;;
69256;SDS011;56376;53.356;-1.748;2022-12-18T12:19:06;31.77;;;17.67;;
69256;SDS011;56376;53.356;-1.748;2022-12-18T12:21:49;27.48;;;17.75;;
69256;SDS011;56376;53.356;-1.748;2022-12-18T12:32:19;23.33;;;14.03;;
69256;SDS011;56376;53.356;-1.748;2022-12-18T12:34:54;24.80;;;15.43;;
69256;SDS011;56376;53.356;-1.748;2022-12-18T12:39:58;27.70;;;16.93;;
69256;SDS011;56376;53.356;-1.748;2022-12-18T12:42:29;25.03;;;15.20;;
69256;SDS011;56376;53.356;-1.748;2022-12-18T12:45:39;27.17;;;16.10;;
69256;SDS011;56376;53.356;-1.748;2022-12-18T12:48:13;27.23;;;17.07;;
69256;SDS011;56376;53.356;-1.748;2022-12-18T12:50:42;26.47;;;17.03;;
69256;SDS011;56376;53.356;-1.748;2022-12-18T12:53:11;26.23;;;15.87;;
69256;SDS011;56376;53.356;-1.748;2022-12-18T12:55:46;26.97;;;16.43;;
69256;SDS011;56376;53.356;-1.748;2022-12-18T12:58:18;30.17;;;17.70;;
69256;SDS011;56376;53.356;-1.748;2022-12-18T13:01:10;29.67;;;16.65;;
69256;SDS011;56376;53.356;-1.748;2022-12-18T13:06:43;27.80;;;16.80;;
69256;SDS011;56376;53.356;-1.748;2022-12-18T13:09:12;28.40;;;16.43;;
69256;SDS011;56376;53.356;-1.748;2022-12-18T13:11:41;31.80;;;18.73;;
69256;SDS011;56376;53.356;-1.748;2022-12-18T13:14:29;32.53;;;19.07;;
69256;SDS011;56376;53.356;-1.748;2022-12-18T13:17:14;31.58;;;19.92;;
69256;SDS011;56376;53.356;-1.748;2022-12-18T13:20:19;29.38;;;18.60;;
69256;SDS011;56376;53.356;-1.748;2022-12-18T13:25:32;33.37;;;20.03;;
69256;SDS011;56376;53.356;-1.748;2022-12-18T13:40:57;29.30;;;18.73;;
69256;SDS011;56376;53.356;-1.748;2022-12-18T13:43:47;31.00;;;17.15;;
69256;SDS011;56376;53.356;-1.748;2022-12-18T13:46:19;23.27;;;14.85;;
69256;SDS011;56376;53.356;-1.748;2022-12-18T13:51:23;28.33;;;16.80;;
69256;SDS011;56376;53.356;-1.748;2022-12-18T13:53:53;28.10;;;18.50;;
69256;SDS011;56376;53.356;-1.748;2022-12-18T13:56:22;32.87;;;18.53;;
69256;SDS011;56376;53.356;-1.748;2022-12-18T13:59:08;27.70;;;17.00;;
69256;SDS011;56376;53.356;-1.748;2022-12-18T14:04:23;29.07;;;17.30;;
69256;SDS011;56376;53.356;-1.748;2022-12-18T14:07:13;32.37;;;17.80;;
69256;SDS011;56376;53.356;-1.748;2022-12-18T14:09:44;31.40;;;18.90;;
69256;SDS011;56376;53.356;-1.748;2022-12-18T14:12:21;38.10;;;20.10;;
69256;SDS011;56376;53.356;-1.748;2022-12-18T14:17:55;35.15;;;18.77;;
69256;SDS011;56376;53.356;-1.748;2022-12-18T14:20:25;31.95;;;18.25;;
69256;SDS011;56376;53.356;-1.748;2022-12-18T14:22:52;28.27;;;17.53;;
69256;SDS011;56376;53.356;-1.748;2022-12-18T14:25:21;29.10;;;17.77;;
69256;SDS011;56376;53.356;-1.748;2022-12-18T14:27:53;25.57;;;17.30;;
69256;SDS011;56376;53.356;-1.748;2022-12-18T14:30:42;26.63;;;15.80;;
69256;SDS011;56376;53.356;-1.748;2022-12-18T14:33:16;28.40;;;16.63;;
69256;SDS011;56376;53.356;-1.748;2022-12-18T14:35:59;27.20;;;15.93;;
69256;SDS011;56376;53.356;-1.748;2022-12-18T14:38:34;32.00;;;19.53;;
69256;SDS011;56376;53.356;-1.748;2022-12-18T14:41:14;28.20;;;18.50;;
69256;SDS011;56376;53.356;-1.748;2022-12-18T14:43:42;32.87;;;21.03;;
69256;SDS011;56376;53.356;-1.748;2022-12-18T14:48:58;31.63;;;19.37;;
69256;SDS011;56376;53.356;-1.748;2022-12-18T14:51:28;24.97;;;17.70;;
69256;SDS011;56376;53.356;-1.748;2022-12-18T14:54:05;25.90;;;16.60;;
69256;SDS011;56376;53.356;-1.748;2022-12-18T14:56:45;27.77;;;17.37;;
69256;SDS011;56376;53.356;-1.748;2022-12-18T14:59:13;25.87;;;16.80;;
69256;SDS011;56376;53.356;-1.748;2022-12-18T15:01:47;21.07;;;14.60;;
69256;SDS011;56376;53.356;-1.748;2022-12-18T15:04:26;25.17;;;14.87;;
69256;SDS011;56376;53.356;-1.748;2022-12-18T15:09:29;22.13;;;14.73;;
69256;SDS011;56376;53.356;-1.748;2022-12-18T15:11:55;23.17;;;14.67;;
69256;SDS011;56376;53.356;-1.748;2022-12-18T15:14:41;19.43;;;12.80;;
69256;SDS011;56376;53.356;-1.748;2022-12-18T15:17:14;21.98;;;13.70;;
69256;SDS011;56376;53.356;-1.748;2022-12-18T15:19:43;17.83;;;12.60;;
69256;SDS011;56376;53.356;-1.748;2022-12-18T15:22:17;18.83;;;12.67;;
69256;SDS011;56376;53.356;-1.748;2022-12-18T15:24:56;17.73;;;11.87;;
69256;SDS011;56376;53.356;-1.748;2022-12-18T15:27:27;18.57;;;11.63;;
69256;SDS011;56376;53.356;-1.748;2022-12-18T15:32:33;15.43;;;10.97;;
69256;SDS011;56376;53.356;-1.748;2022-12-18T15:35:41;16.67;;;11.77;;
69256;SDS011;56376;53.356;-1.748;2022-12-18T15:37:50;18.20;;;11.63;;
69256;SDS011;56376;53.356;-1.748;2022-12-18T15:40:18;17.33;;;11.63;;
69256;SDS011;56376;53.356;-1.748;2022-12-18T15:42:47;17.97;;;12.23;;
69256;SDS011;56376;53.356;-1.748;2022-12-18T15:45:32;13.00;;;9.60;;
69256;SDS011;56376;53.356;-1.748;2022-12-18T15:47:58;14.83;;;10.27;;
69256;SDS011;56376;53.356;-1.748;2022-12-18T15:50:24;13.97;;;10.40;;
69256;SDS011;56376;53.356;-1.748;2022-12-18T15:52:50;14.20;;;10.13;;
69256;SDS011;56376;53.356;-1.748;2022-12-18T15:55:22;12.20;;;9.33;;
69256;SDS011;56376;53.356;-1.748;2022-12-18T15:58:07;11.30;;;8.50;;
69256;SDS011;56376;53.356;-1.748;2022-12-18T16:00:35;11.90;;;8.77;;
69256;SDS011;56376;53.356;-1.748;2022-12-18T16:03:03;12.07;;;9.47;;
69256;SDS011;56376;53.356;-1.748;2022-12-18T16:05:34;14.80;;;10.47;;
69256;SDS011;56376;53.356;-1.748;2022-12-18T16:08:02;12.00;;;9.83;;
69256;SDS011;56376;53.356;-1.748;2022-12-18T16:10:28;11.40;;;8.93;;
69256;SDS011;56376;53.356;-1.748;2022-12-18T16:12:53;11.67;;;8.77;;
69256;SDS011;56376;53.356;-1.748;2022-12-18T16:15:19;12.90;;;10.53;;
69256;SDS011;56376;53.356;-1.748;2022-12-18T16:17:45;12.90;;;9.80;;
69256;SDS011;56376;53.356;-1.748;2022-12-18T16:20:15;13.17;;;10.53;;
69256;SDS011;56376;53.356;-1.748;2022-12-18T16:22:42;13.43;;;10.50;;
69256;SDS011;56376;53.356;-1.748;2022-12-18T16:25:25;14.73;;;11.00;;
69256;SDS011;56376;53.356;-1.748;2022-12-18T16:27:52;14.00;;;9.97;;